createdAt,value
2018-04-13T00:00:58.176Z,10.00
2018-04-13T00:03:29.504Z,10.00
2018-04-13T00:06:00.814Z,10.00
2018-04-13T00:08:32.759Z,10.00
2018-04-13T00:11:05.164Z,10.00
2018-04-13T00:13:37.552Z,10.10
2018-04-13T00:16:09.320Z,10.10
2018-04-13T00:18:40.446Z,10.10
2018-04-13T00:21:12.095Z,10.00
2018-04-13T00:23:44.268Z,10.10
2018-04-13T00:26:16.112Z,10.10
2018-04-13T00:28:47.858Z,10.10
2018-04-13T00:31:18.925Z,10.20
2018-04-13T00:33:50.852Z,10.30
2018-04-13T00:36:21.884Z,10.30
2018-04-13T00:38:53.436Z,10.30
2018-04-13T00:41:24.926Z,10.30
2018-04-13T00:43:57.059Z,10.40
2018-04-13T00:46:28.132Z,10.40
2018-04-13T00:48:59.172Z,10.40
2018-04-13T00:51:31.538Z,10.40
2018-04-13T00:54:03.456Z,10.50
2018-04-13T00:56:34.504Z,10.50
2018-04-13T00:59:06.001Z,10.40
2018-04-13T01:01:37.765Z,10.40
2018-04-13T01:04:09.872Z,10.40
2018-04-13T01:06:41.342Z,10.40
2018-04-13T01:09:12.403Z,10.60
2018-04-13T01:11:44.414Z,10.60
2018-04-13T01:14:16.736Z,10.60
2018-04-13T01:16:47.887Z,10.50
2018-04-13T01:19:18.943Z,10.50
2018-04-13T01:21:50.011Z,10.60
2018-04-13T01:24:21.708Z,10.60
2018-04-13T01:26:52.791Z,10.70
2018-04-13T01:29:23.948Z,10.70
2018-04-13T01:31:56.710Z,10.80
2018-04-13T01:34:28.065Z,10.80
2018-04-13T01:36:59.688Z,10.80
2018-04-13T01:39:31.654Z,10.70
2018-04-13T01:42:02.716Z,10.60
2018-04-13T01:44:33.744Z,10.60
2018-04-13T01:47:05.969Z,10.60
2018-04-13T01:49:37.094Z,10.60
2018-04-13T01:52:08.286Z,10.50
2018-04-13T01:54:39.642Z,10.40
2018-04-13T01:57:11.432Z,10.20
2018-04-13T01:59:42.663Z,10.20
2018-04-13T02:02:14.239Z,10.10
2018-04-13T02:04:45.461Z,10.10
2018-04-13T02:07:16.560Z,10.10
2018-04-13T02:09:48.700Z,10.10
2018-04-13T02:12:19.701Z,10.10
2018-04-13T02:14:50.888Z,10.00
2018-04-13T02:17:22.119Z,10.00
2018-04-13T02:19:53.227Z,9.90
2018-04-13T02:22:24.162Z,9.90
2018-04-13T02:24:55.247Z,9.80
2018-04-13T02:27:25.978Z,9.80
2018-04-13T02:29:56.853Z,9.80
2018-04-13T02:32:28.770Z,9.70
2018-04-13T02:34:59.800Z,9.70
2018-04-13T02:37:31.311Z,9.60
2018-04-13T02:40:02.568Z,9.60
2018-04-13T02:42:34.070Z,9.60
2018-04-13T02:45:05.560Z,9.60
2018-04-13T02:47:36.639Z,9.60
2018-04-13T02:50:07.828Z,9.70
2018-04-13T02:53:40.954Z,9.70
2018-04-13T02:56:11.645Z,9.70
2018-04-13T02:58:42.340Z,9.70
2018-04-13T03:01:15.035Z,9.80
2018-04-13T03:03:46.233Z,9.80
2018-04-13T03:06:17.629Z,9.80
2018-04-13T03:08:49.063Z,9.80
2018-04-13T03:11:21.197Z,9.80
2018-04-13T03:13:51.933Z,9.80
2018-04-13T03:16:22.772Z,9.80
2018-04-13T03:18:55.001Z,9.80
2018-04-13T03:21:26.158Z,9.80
2018-04-13T03:23:56.830Z,9.80
2018-04-13T03:26:28.372Z,9.80
2018-04-13T03:28:59.074Z,9.80
2018-04-13T03:31:30.346Z,9.80
2018-04-13T03:34:01.769Z,9.80
2018-04-13T03:36:33.119Z,9.80
2018-04-13T03:39:04.344Z,9.90
2018-04-13T03:41:35.428Z,9.80
2018-04-13T03:44:06.804Z,9.80
2018-04-13T03:46:37.962Z,9.70
2018-04-13T03:49:08.696Z,9.80
2018-04-13T03:51:40.887Z,9.70
2018-04-13T03:54:11.817Z,9.70
2018-04-13T03:56:42.764Z,9.70
2018-04-13T03:59:14.002Z,9.60
2018-04-13T04:01:45.552Z,9.50
2018-04-13T04:04:16.352Z,9.50
2018-04-13T04:06:48.455Z,9.50
2018-04-13T04:09:19.758Z,9.40
2018-04-13T04:11:50.503Z,9.40
2018-04-13T04:14:21.981Z,9.30
2018-04-13T04:16:53.440Z,9.30
2018-04-13T04:19:32.807Z,9.30
2018-04-13T04:22:14.418Z,9.30
2018-04-13T04:25:25.114Z,9.30
2018-04-13T04:27:56.316Z,9.20
2018-04-13T04:30:27.353Z,9.30
2018-04-13T04:32:58.882Z,9.40
2018-04-13T04:35:29.997Z,9.40
2018-04-13T04:38:01.377Z,9.50
2018-04-13T04:40:32.104Z,9.50
2018-04-13T04:43:03.224Z,9.60
2018-04-13T04:45:34.288Z,9.70
2018-04-13T04:48:05.039Z,9.70
2018-04-13T04:50:35.790Z,9.80
2018-04-13T04:53:07.004Z,9.80
2018-04-13T04:55:37.757Z,9.80
2018-04-13T04:58:09.314Z,9.90
2018-04-13T05:00:40.321Z,9.90
2018-04-13T05:03:12.218Z,10.00
2018-04-13T05:05:42.964Z,10.10
2018-04-13T05:08:15.032Z,10.10
2018-04-13T05:10:45.743Z,10.10
2018-04-13T05:13:16.771Z,10.10
2018-04-13T05:15:47.866Z,10.20
2018-04-13T05:18:19.676Z,10.10
2018-04-13T05:20:51.201Z,10.10
2018-04-13T05:23:22.189Z,10.10
2018-04-13T05:25:53.696Z,10.10
2018-04-13T05:28:24.424Z,10.20
2018-04-13T05:30:55.414Z,10.20
2018-04-13T05:33:26.474Z,10.30
2018-04-13T05:35:57.374Z,10.30
2018-04-13T05:38:28.396Z,10.30
2018-04-13T05:40:59.169Z,10.40
2018-04-13T05:43:32.179Z,10.50
2018-04-13T05:46:05.716Z,10.50
2018-04-13T05:48:36.754Z,10.60
2018-04-13T05:51:07.618Z,10.60
2018-04-13T05:53:38.355Z,10.60
2018-04-13T05:56:10.219Z,10.80
2018-04-13T05:58:41.058Z,10.80
2018-04-13T06:01:12.783Z,11.10
2018-04-13T06:03:43.834Z,11.10
2018-04-13T06:06:14.550Z,11.20
2018-04-13T06:08:45.927Z,11.10
2018-04-13T06:11:17.029Z,11.30
2018-04-13T06:13:47.914Z,11.40
2018-04-13T06:16:19.432Z,11.70
2018-04-13T06:18:50.251Z,11.70
2018-04-13T06:21:20.991Z,11.80
2018-04-13T06:23:52.285Z,11.90
2018-04-13T06:26:23.789Z,11.90
2018-04-13T06:28:55.490Z,11.90
2018-04-13T06:31:26.561Z,11.90
2018-04-13T06:33:58.149Z,12.10
2018-04-13T06:36:29.075Z,12.00
2018-04-13T06:39:00.037Z,12.10
2018-04-13T06:41:30.860Z,12.10
2018-04-13T06:44:02.048Z,12.20
2018-04-13T06:46:33.527Z,12.30
2018-04-13T06:49:04.634Z,12.20
2018-04-13T06:51:36.527Z,12.40
2018-04-13T06:54:07.585Z,12.40
2018-04-13T06:56:38.376Z,12.50
2018-04-13T06:59:10.075Z,12.60
2018-04-13T07:01:40.832Z,12.60
2018-04-13T07:04:11.724Z,12.70
2018-04-13T07:06:42.600Z,12.70
2018-04-13T07:09:13.655Z,12.70
2018-04-13T07:11:44.687Z,12.80
2018-04-13T07:14:15.432Z,12.90
2018-04-13T07:16:46.269Z,13.00
2018-04-13T07:19:17.085Z,13.20
2018-04-13T07:21:47.829Z,13.30
2018-04-13T07:24:18.869Z,13.40
2018-04-13T07:26:49.623Z,13.40
2018-04-13T07:29:21.347Z,13.40
2018-04-13T07:31:52.159Z,13.60
2018-04-13T07:34:23.251Z,13.60
2018-04-13T07:36:54.243Z,13.70
2018-04-13T07:39:25.232Z,13.80
2018-04-13T07:41:56.047Z,14.10
2018-04-13T07:44:27.003Z,14.10
2018-04-13T07:46:57.945Z,14.30
2018-04-13T07:49:29.187Z,14.60
2018-04-13T07:52:00.103Z,14.90
2018-04-13T07:54:31.703Z,15.20
2018-04-13T07:57:02.840Z,15.20
2018-04-13T07:59:33.729Z,15.40
2018-04-13T08:02:04.792Z,15.40
2018-04-13T08:04:35.456Z,15.20
2018-04-13T08:07:06.223Z,15.30
2018-04-13T08:09:37.010Z,15.30
2018-04-13T08:12:08.063Z,15.30
2018-04-13T08:14:39.146Z,15.40
2018-04-13T08:17:09.953Z,15.40
2018-04-13T08:19:40.783Z,15.40
2018-04-13T08:22:12.385Z,15.60
2018-04-13T08:24:43.168Z,15.60
2018-04-13T08:27:14.207Z,15.70
2018-04-13T08:29:46.084Z,16.30
2018-04-13T08:32:16.878Z,16.30
2018-04-13T08:34:48.431Z,16.80
2018-04-13T08:37:19.972Z,17.10
2018-04-13T08:39:51.969Z,17.60
2018-04-13T08:42:23.732Z,17.40
2018-04-13T08:44:54.658Z,17.40
2018-04-13T08:47:25.483Z,17.20
2018-04-13T08:49:56.617Z,17.30
2018-04-13T08:52:27.755Z,17.40
2018-04-13T08:54:59.312Z,17.70
2018-04-13T08:57:30.853Z,18.00
2018-04-13T09:00:02.222Z,18.00
2018-04-13T09:02:33.201Z,18.40
2018-04-13T09:05:04.418Z,18.60
2018-04-13T09:07:35.443Z,18.80
2018-04-13T09:10:06.225Z,19.10
2018-04-13T09:12:36.989Z,19.30
2018-04-13T09:15:08.993Z,19.00
2018-04-13T09:17:39.915Z,19.00
2018-04-13T09:20:11.737Z,19.30
2018-04-13T09:22:42.513Z,19.20
2018-04-13T09:25:15.110Z,19.90
2018-04-13T09:27:45.840Z,19.90
2018-04-13T09:30:16.904Z,20.10
2018-04-13T09:32:47.683Z,19.90
2018-04-13T09:35:19.391Z,20.10
2018-04-13T09:37:50.569Z,20.00
2018-04-13T09:40:21.644Z,20.10
2018-04-13T09:42:52.394Z,20.00
2018-04-13T09:45:24.111Z,19.90
2018-04-13T09:47:55.664Z,20.40
2018-04-13T09:50:26.744Z,20.40
2018-04-13T09:52:57.876Z,20.50
2018-04-13T09:55:28.653Z,20.70
2018-04-13T09:57:59.473Z,20.90
2018-04-13T10:00:31.309Z,20.90
2018-04-13T10:03:04.223Z,20.90
2018-04-13T10:05:35.088Z,20.70
2018-04-13T10:08:06.717Z,20.40
2018-04-13T10:10:37.657Z,20.40
2018-04-13T10:13:08.418Z,20.30
2018-04-13T10:15:40.255Z,20.50
2018-04-13T10:18:11.044Z,20.50
2018-04-13T10:20:41.977Z,20.40
2018-04-13T10:23:12.729Z,20.00
2018-04-13T10:25:43.801Z,20.00
2018-04-13T10:28:14.557Z,20.10
2018-04-13T10:30:46.013Z,20.00
2018-04-13T10:33:17.861Z,19.90
2018-04-13T10:35:49.544Z,19.70
2018-04-13T10:38:21.116Z,19.70
2018-04-13T10:40:52.281Z,19.60
2018-04-13T10:43:23.205Z,19.70
2018-04-13T10:45:54.289Z,19.70
2018-04-13T10:48:25.244Z,19.50
2018-04-13T10:50:56.080Z,19.30
2018-04-13T10:53:27.601Z,18.80
2018-04-13T10:55:59.837Z,18.70
2018-04-13T10:58:30.603Z,18.70
2018-04-13T11:01:01.427Z,18.50
2018-04-13T11:03:32.464Z,18.30
2018-04-13T11:06:03.609Z,18.20
2018-04-13T11:08:34.372Z,18.10
2018-04-13T11:11:05.270Z,17.80
2018-04-13T11:13:37.125Z,17.10
2018-04-13T11:16:08.059Z,17.10
2018-04-13T11:18:38.836Z,16.70
2018-04-13T11:21:09.681Z,16.30
2018-04-13T11:23:40.470Z,16.00
2018-04-13T11:26:11.531Z,16.00
2018-04-13T11:28:42.251Z,15.80
2018-04-13T11:31:13.022Z,15.70
2018-04-13T11:33:44.245Z,15.50
2018-04-13T11:36:15.981Z,15.40
2018-04-13T11:38:46.775Z,15.40
2018-04-13T11:41:18.290Z,15.40
2018-04-13T11:43:49.418Z,15.40
2018-04-13T11:46:20.475Z,15.40
2018-04-13T11:48:51.226Z,15.40
2018-04-13T11:51:22.309Z,15.40
2018-04-13T11:53:53.037Z,15.50
2018-04-13T11:56:23.867Z,15.60
2018-04-13T11:58:54.636Z,15.60
2018-04-13T12:01:26.216Z,15.50
2018-04-13T12:03:56.963Z,15.60
2018-04-13T12:06:28.633Z,15.70
2018-04-13T12:08:59.391Z,15.70
2018-04-13T12:11:30.505Z,15.80
2018-04-13T12:14:01.253Z,16.00
2018-04-13T12:16:32.130Z,16.20
2018-04-13T12:19:03.117Z,16.30
2018-04-13T12:21:34.931Z,16.20
2018-04-13T12:24:05.803Z,16.20
2018-04-13T12:26:37.556Z,16.00
2018-04-13T12:29:09.348Z,15.70
2018-04-13T12:31:40.308Z,15.70
2018-04-13T12:34:11.248Z,15.70
2018-04-13T12:36:42.577Z,15.60
2018-04-13T12:39:13.364Z,15.50
2018-04-13T12:41:44.088Z,15.40
2018-04-13T12:44:15.295Z,15.50
2018-04-13T12:46:47.176Z,15.30
2018-04-13T12:49:17.923Z,15.30
2018-04-13T12:51:49.016Z,15.20
2018-04-13T12:54:19.904Z,15.00
2018-04-13T12:56:51.047Z,15.10
2018-04-13T12:59:21.813Z,15.20
2018-04-13T13:01:53.528Z,15.40
2018-04-13T13:04:24.923Z,15.40
2018-04-13T13:06:55.838Z,15.40
2018-04-13T13:09:26.587Z,15.40
2018-04-13T13:11:58.452Z,15.50
2018-04-13T13:14:29.598Z,15.50
2018-04-13T13:17:00.629Z,15.70
2018-04-13T13:19:32.155Z,15.60
2018-04-13T13:22:03.312Z,15.60
2018-04-13T13:24:34.875Z,15.70
2018-04-13T13:27:05.699Z,15.70
2018-04-13T13:29:37.241Z,15.70
2018-04-13T13:32:08.040Z,15.70
2018-04-13T13:34:39.296Z,15.80
2018-04-13T13:37:10.395Z,15.90
2018-04-13T13:39:41.169Z,16.00
2018-04-13T13:42:12.017Z,16.20
2018-04-13T13:44:42.794Z,16.50
2018-04-13T13:47:14.746Z,17.30
2018-04-13T13:49:46.286Z,17.70
2018-04-13T13:52:17.977Z,18.20
2018-04-13T13:54:48.844Z,18.20
2018-04-13T13:57:19.618Z,18.30
2018-04-13T13:59:51.178Z,18.70
2018-04-13T14:02:22.986Z,18.80
2018-04-13T14:04:53.737Z,18.80
2018-04-13T14:07:25.717Z,18.30
2018-04-13T14:09:56.441Z,18.20
2018-04-13T14:12:27.207Z,18.40
2018-04-13T14:14:59.159Z,18.30
2018-04-13T14:17:31.068Z,18.20
2018-04-13T14:20:01.801Z,18.20
2018-04-13T14:22:32.627Z,18.30
2018-04-13T14:25:03.365Z,18.70
2018-04-13T14:27:34.135Z,18.60
2018-04-13T14:30:04.948Z,18.80
2018-04-13T14:32:36.118Z,19.10
2018-04-13T14:35:06.857Z,18.80
2018-04-13T14:37:37.895Z,19.00
2018-04-13T14:40:09.013Z,19.60
2018-04-13T14:42:39.838Z,20.30
2018-04-13T14:45:10.590Z,20.50
2018-04-13T14:47:41.830Z,20.50
2018-04-13T14:50:12.605Z,20.20
2018-04-13T14:52:43.397Z,19.80
2018-04-13T14:55:14.605Z,19.60
2018-04-13T14:57:45.545Z,19.60
2018-04-13T15:00:16.369Z,19.90
2018-04-13T15:02:47.435Z,19.70
2018-04-13T15:05:18.093Z,19.50
2018-04-13T15:07:48.981Z,19.40
2018-04-13T15:10:19.795Z,19.40
2018-04-13T15:12:51.391Z,19.90
2018-04-13T15:15:22.597Z,19.80
2018-04-13T15:17:53.526Z,20.20
2018-04-13T15:20:24.407Z,20.10
2018-04-13T15:22:55.688Z,20.30
2018-04-13T15:25:26.515Z,20.90
2018-04-13T15:27:57.340Z,20.90
2018-04-13T15:30:28.315Z,21.00
2018-04-13T15:32:59.077Z,21.00
2018-04-13T15:35:29.785Z,21.10
2018-04-13T15:38:01.800Z,20.10
2018-04-13T15:40:32.521Z,20.10
2018-04-13T15:43:03.340Z,19.80
2018-04-13T15:45:34.832Z,19.30
2018-04-13T15:48:06.082Z,19.40
2018-04-13T15:50:36.808Z,19.00
2018-04-13T15:53:08.308Z,18.60
2018-04-13T15:55:39.281Z,18.60
2018-04-13T15:58:10.837Z,18.00
2018-04-13T16:00:41.563Z,18.00
2018-04-13T16:03:12.670Z,17.60
2018-04-13T16:05:43.330Z,17.20
2018-04-13T16:08:14.028Z,16.90
2018-04-13T16:10:44.692Z,16.70
2018-04-13T16:13:15.688Z,16.70
2018-04-13T16:15:47.141Z,16.60
2018-04-13T16:18:23.100Z,16.70
2018-04-13T16:20:54.040Z,16.70
2018-04-13T16:23:24.746Z,16.60
2018-04-13T16:25:55.396Z,16.50
2018-04-13T16:28:26.915Z,16.20
2018-04-13T16:30:57.585Z,16.20
2018-04-13T16:33:29.047Z,15.70
2018-04-13T16:35:59.697Z,15.70
2018-04-13T16:38:30.772Z,15.30
2018-04-13T16:41:01.460Z,15.30
2018-04-13T16:43:32.408Z,15.10
2018-04-13T16:46:03.212Z,15.20
2018-04-13T16:48:34.602Z,15.20
2018-04-13T16:51:05.374Z,15.20
2018-04-13T16:53:36.651Z,15.00
